Gas Snapper — V7TZ3 — position and weather

sailwx.info

Track history (hours):
 
Tides and Currents Weather Stations Pressure Air Temp Water Temp Dewpoint Dewpoint Depression Visibility Wind Speed Wind Dir Waves Ship Positions

Gas Snapper

Last reported at 2017-May-22 09:22 UTC. Time now 2017-May-23 22:21 UTC.
Position N 51°22' E 004°18'.

Length 174 m; draft 10.3 m.

Type: Ship (hazmat cat D). MMSI: 538003911.

Date/timePositionNaut miles runAvg speedWind from/ knotsBaromVisibWave heightAir tempDewpointWater temp
2017-May-22 09:22N 51°22' E 004°18'0 0.2
2017-May-22 09:00N 51°22' E 004°17'0 0.9
2017-May-22 08:30N 51°21' E 004°18'1 1.3
2017-May-22 08:00N 51°21' E 004°17'0 0.0
2017-May-22 07:30N 51°21' E 004°17'0 0.0
2017-May-22 07:01N 51°21' E 004°17'1 1.5
2017-May-22 06:29N 51°21' E 004°16'4 7.8
2017-May-22 06:01N 51°24' E 004°12'510.0
2017-May-22 05:31N 51°22' E 004°04'510.1
2017-May-22 05:01N 51°26' E 003°59'611.1
2017-May-22 04:30N 51°22' E 003°54'5 9.1
2017-May-22 04:01N 51°21' E 003°47'5 9.1
2017-May-22 03:31N 51°25' E 003°42'4 8.8
2017-May-22 03:01N 51°26' E 003°36'4 7.1
2017-May-22 02:31N 51°25' E 003°30'510.4
2017-May-22 02:00N 51°24' E 003°22'510.8
2017-May-22 01:31N 51°24' E 003°13'611.4
2017-May-22 01:01N 51°24' E 003°04'611.7
2017-May-22 00:30N 51°22' E 002°55'612.9
2017-May-22 00:01N 51°22' E 002°45'611.2
2017-May-21 23:31N 51°22' E 002°36'4 8.3
2017-May-21 23:01N 51°22' E 002°29'5 9.7
2017-May-21 22:30N 51°19' E 002°22'714.0
2017-May-21 22:00N 51°15' E 002°13'714.2
2017-May-21 21:30N 51°12' E 002°03'714.3
2017-May-21 21:00N 51°09' E 001°53'714.7
2017-May-21 20:30N 51°05' E 001°43'815.9
2017-May-21 20:01N 50°59' E 001°35'815.5
2017-May-21 19:30N 50°53' E 001°27'815.1
2017-May-21 19:00N 50°46' E 001°24'713.8
2017-May-21 18:30N 50°40' E 001°17'714.3
2017-May-21 18:00N 50°36' E 001°08'814.3
2017-May-21 17:29N 50°31' E 000°59'714.4
2017-May-21 16:58N 50°29' E 000°47'714.7
2017-May-21 16:30N 50°27' E 000°37'814.9
2017-May-21 15:59N 50°25' E 000°26'714.9
2017-May-21 15:30N 50°23' E 000°15'714.8
2017-May-21 15:00N 50°21' E 000°04'714.6
2017-May-21 14:30N 50°19' W 000°07'1414.1
2017-May-21 13:30N 50°15' W 000°29'713.8
2017-May-21 13:00N 50°13' W 000°39'713.4
2017-May-21 12:30N 50°11' W 000°49'713.0
2017-May-21 12:00N 50°09' W 000°59'1712.4
2017-May-21 10:36N 50°03' W 001°24'211.8
2017-May-21 10:27N 50°03' W 001°27'711.7
2017-May-21 09:53N 50°01' W 001°37'1011.7
2017-May-21 09:01N 49°58' W 001°52'112.0
2017-May-21 08:54N 49°58' W 001°54'512.0
2017-May-21 08:30N 49°57' W 002°02'1212.7
2017-May-21 07:35N 49°55' W 002°19'113.2
2017-May-21 07:29N 49°54' W 002°21'713.5
2017-May-21 06:58N 49°53' W 002°32'713.7
2017-May-21 06:29N 49°51' W 002°42'714.1
2017-May-21 06:00N 49°50' W 002°52'814.5
2017-May-21 05:29N 49°46' W 003°02'714.6
2017-May-21 05:00N 49°43' W 003°12'714.6
2017-May-21 04:31N 49°39' W 003°21'814.6
2017-May-21 03:59N 49°35' W 003°32'1914.7
2017-May-21 02:43N 49°25' W 003°56'514.9
2017-May-21 02:23N 49°23' W 004°03'815.0
2017-May-21 01:52N 49°19' W 004°12'715.0
2017-May-21 01:26N 49°15' W 004°21'3015.2
2017-May-20 23:29N 49°01' W 005°01'815.2
2017-May-20 22:57N 48°57' W 005°11'915.2
2017-May-20 22:23N 48°53' W 005°23'615.1
2017-May-20 21:58N 48°50' W 005°31'59613.4
2017-May-19 01:22N 39°25' W 009°57'512.4
2017-May-19 00:56N 39°20' W 009°57'612.4
2017-May-19 00:29N 39°14' W 009°57'612.2
2017-May-19 00:00N 39°08' W 009°57'612.3
2017-May-18 23:30N 39°02' W 009°57'612.2
2017-May-18 23:00N 38°56' W 009°57'612.3
2017-May-18 22:31N 38°50' W 009°57'612.4
2017-May-18 22:00N 38°44' W 009°57'612.2
2017-May-18 21:30N 38°38' W 009°56'612.3
2017-May-18 21:00N 38°32' W 009°55'612.4
2017-May-18 20:30N 38°25' W 009°53'612.4
2017-May-18 20:00N 38°19' W 009°52'612.3
2017-May-18 19:30N 38°13' W 009°50'612.4
2017-May-18 18:59N 38°07' W 009°48'712.2
2017-May-18 18:23N 38°00' W 009°45'23311.3
2017-May-17 21:43N 35°58' W 005°37'312.1
2017-May-17 21:31N 35°59' W 005°34'612.1
2017-May-17 21:00N 36°00' W 005°26'5 9.8
2017-May-17 20:31N 36°03' W 005°22'3 5.0
2017-May-17 20:00N 36°05' W 005°19'612.4
2017-May-17 19:30N 36°09' W 005°13'2 0.9
2017-May-17 17:33N 36°07' W 005°14'111.7
2017-May-17 17:28N 36°07' W 005°15'511.0
2017-May-17 17:00N 36°05' W 005°21'1 2.9
2017-May-17 16:30N 36°04' W 005°20'712.9
2017-May-17 15:59N 36°03' W 005°11'25414.2
2017-May-16 22:04N 36°46' E 000°00'114.8
2017-May-16 22:01N 36°46' E 000°02'1514.8
2017-May-16 20:58N 36°49' E 000°20'1714.7
2017-May-16 19:51N 36°52' E 000°41'514.7
2017-May-16 19:30N 36°53' E 000°47'714.7
2017-May-16 19:00N 36°54' E 000°56'714.5
2017-May-16 18:30N 36°55' E 001°05'714.4
2017-May-16 18:00N 36°57' E 001°14'814.2
2017-May-16 17:28N 36°58' E 001°23'1014.3
2017-May-16 16:44N 37°01' E 001°36'314.5
2017-May-16 16:31N 37°01' E 001°40'815.0
2017-May-16 16:00N 37°02' E 001°49'815.1
2017-May-16 15:31N 37°03' E 001°58'815.1
2017-May-16 15:00N 37°05' E 002°08'815.2
2017-May-16 14:30N 37°06' E 002°17'1515.0
2017-May-16 13:31N 37°10' E 002°35'714.8
2017-May-16 13:00N 37°12' E 002°44'714.6
2017-May-16 12:30N 37°12' E 002°54'714.4
2017-May-16 12:00N 37°13' E 003°03'814.4
2017-May-16 11:28N 37°15' E 003°12'714.4
2017-May-16 10:58N 37°16' E 003°21'714.4
2017-May-16 10:27N 37°18' E 003°30'714.5
2017-May-16 10:00N 37°19' E 003°38'714.5
2017-May-16 09:30N 37°20' E 003°47'714.5
2017-May-16 09:00N 37°21' E 003°56'714.7
2017-May-16 08:30N 37°23' E 004°05'714.6
2017-May-16 08:00N 37°24' E 004°14'1914.7
2017-May-16 06:43N 37°27' E 004°38'314.5
2017-May-16 06:30N 37°28' E 004°41'714.6
2017-May-16 06:00N 37°29' E 004°50'714.7
2017-May-16 05:30N 37°31' E 004°60'714.8
2017-May-16 05:00N 37°32' E 005°09'714.9
2017-May-16 04:30N 37°33' E 005°18'714.8
2017-May-16 04:01N 37°35' E 005°27'914.8
2017-May-16 03:23N 37°36' E 005°38'614.8
2017-May-16 02:59N 37°38' E 005°46'714.5
2017-May-16 02:30N 37°39' E 005°54'714.5
2017-May-16 02:00N 37°40' E 006°04'1914.6
2017-May-16 00:40N 37°39' E 006°28'614.8
2017-May-16 00:16N 37°39' E 006°36'414.7
2017-May-16 00:00N 37°40' E 006°41'714.7
2017-May-15 23:30N 37°39' E 006°50'6514.5
2017-May-15 19:00N 37°40' E 008°12'23413.8
2017-May-15 02:02N 36°46' E 012°58'014.3
2017-May-15 02:00N 36°46' E 012°58'714.3
2017-May-15 01:30N 36°43' E 013°06'714.8
2017-May-15 01:00N 36°40' E 013°15'715.0
2017-May-15 00:30N 36°37' E 013°23'714.9
2017-May-15 00:00N 36°34' E 013°32'714.8
2017-May-14 23:30N 36°32' E 013°41'714.8
2017-May-14 23:00N 36°29' E 013°49'714.5
2017-May-14 22:30N 36°26' E 013°57'714.1
2017-May-14 22:00N 36°25' E 014°06'714.1
2017-May-14 21:30N 36°24' E 014°15'713.9
2017-May-14 21:00N 36°24' E 014°23'714.0
2017-May-14 20:30N 36°24' E 014°32'714.0
2017-May-14 20:00N 36°23' E 014°41'714.2
2017-May-14 19:30N 36°23' E 014°50'714.3
2017-May-14 19:00N 36°22' E 014°58'714.3
2017-May-14 18:31N 36°22' E 015°07'714.5
2017-May-14 18:00N 36°22' E 015°16'714.6
2017-May-14 17:30N 36°21' E 015°25'714.7
2017-May-14 17:00N 36°21' E 015°35'814.7
2017-May-14 16:28N 36°20' E 015°44'3614.7
2017-May-14 14:02N 36°18' E 016°29'34214.0
2017-May-13 13:38N 36°22' E 023°33'213.4
2017-May-13 13:30N 36°23' E 023°35'913.5
2017-May-13 12:52N 36°29' E 023°42'613.4
2017-May-13 12:26N 36°34' E 023°47'613.5
2017-May-13 12:00N 36°38' E 023°52'913.7
2017-May-13 11:19N 36°46' E 023°58'413.5
2017-May-13 11:00N 36°50' E 024°01'713.4
2017-May-13 10:30N 36°56' E 024°04'913.5
2017-May-13 09:49N 37°05' E 024°07'514.0
2017-May-13 09:26N 37°10' E 024°08'814.1
2017-May-13 08:53N 37°18' E 024°09'  
Track history (hours):
 
Tides and Currents Weather Stations Pressure Air Temp Water Temp Dewpoint Dewpoint Depression Visibility Wind Speed Wind Dir Waves Ship Positions

Gas Snapper

Last reported at 2017-May-22 09:22 UTC. Time now 2017-May-23 22:21 UTC.
Position N 51°22' E 004°18'.

Length 174 m; draft 10.3 m.

Type: Ship (hazmat cat D). MMSI: 538003911.

Date/timePositionNaut miles runAvg speedWind from/ knotsBaromVisibWave heightAir tempDewpointWater temp
2017-May-22 09:22N 51°22' E 004°18'0 0.2
2017-May-22 09:00N 51°22' E 004°17'0 0.9
2017-May-22 08:30N 51°21' E 004°18'1 1.3
2017-May-22 08:00N 51°21' E 004°17'0 0.0
2017-May-22 07:30N 51°21' E 004°17'0 0.0
2017-May-22 07:01N 51°21' E 004°17'1 1.5
2017-May-22 06:29N 51°21' E 004°16'4 7.8
2017-May-22 06:01N 51°24' E 004°12'510.0
2017-May-22 05:31N 51°22' E 004°04'510.1
2017-May-22 05:01N 51°26' E 003°59'611.1
2017-May-22 04:30N 51°22' E 003°54'5 9.1
2017-May-22 04:01N 51°21' E 003°47'5 9.1
2017-May-22 03:31N 51°25' E 003°42'4 8.8
2017-May-22 03:01N 51°26' E 003°36'4 7.1
2017-May-22 02:31N 51°25' E 003°30'510.4
2017-May-22 02:00N 51°24' E 003°22'510.8
2017-May-22 01:31N 51°24' E 003°13'611.4
2017-May-22 01:01N 51°24' E 003°04'611.7
2017-May-22 00:30N 51°22' E 002°55'612.9
2017-May-22 00:01N 51°22' E 002°45'611.2
2017-May-21 23:31N 51°22' E 002°36'4 8.3
2017-May-21 23:01N 51°22' E 002°29'5 9.7
2017-May-21 22:30N 51°19' E 002°22'714.0
2017-May-21 22:00N 51°15' E 002°13'714.2
2017-May-21 21:30N 51°12' E 002°03'714.3
2017-May-21 21:00N 51°09' E 001°53'714.7
2017-May-21 20:30N 51°05' E 001°43'815.9
2017-May-21 20:01N 50°59' E 001°35'815.5
2017-May-21 19:30N 50°53' E 001°27'815.1
2017-May-21 19:00N 50°46' E 001°24'713.8
2017-May-21 18:30N 50°40' E 001°17'714.3
2017-May-21 18:00N 50°36' E 001°08'814.3
2017-May-21 17:29N 50°31' E 000°59'714.4
2017-May-21 16:58N 50°29' E 000°47'714.7
2017-May-21 16:30N 50°27' E 000°37'814.9
2017-May-21 15:59N 50°25' E 000°26'714.9
2017-May-21 15:30N 50°23' E 000°15'714.8
2017-May-21 15:00N 50°21' E 000°04'714.6
2017-May-21 14:30N 50°19' W 000°07'1414.1
2017-May-21 13:30N 50°15' W 000°29'713.8
2017-May-21 13:00N 50°13' W 000°39'713.4
2017-May-21 12:30N 50°11' W 000°49'713.0
2017-May-21 12:00N 50°09' W 000°59'1712.4
2017-May-21 10:36N 50°03' W 001°24'211.8
2017-May-21 10:27N 50°03' W 001°27'711.7
2017-May-21 09:53N 50°01' W 001°37'1011.7
2017-May-21 09:01N 49°58' W 001°52'112.0
2017-May-21 08:54N 49°58' W 001°54'512.0
2017-May-21 08:30N 49°57' W 002°02'1212.7
2017-May-21 07:35N 49°55' W 002°19'113.2
2017-May-21 07:29N 49°54' W 002°21'713.5
2017-May-21 06:58N 49°53' W 002°32'713.7
2017-May-21 06:29N 49°51' W 002°42'714.1
2017-May-21 06:00N 49°50' W 002°52'814.5
2017-May-21 05:29N 49°46' W 003°02'714.6
2017-May-21 05:00N 49°43' W 003°12'714.6
2017-May-21 04:31N 49°39' W 003°21'814.6
2017-May-21 03:59N 49°35' W 003°32'1914.7
2017-May-21 02:43N 49°25' W 003°56'514.9
2017-May-21 02:23N 49°23' W 004°03'815.0
2017-May-21 01:52N 49°19' W 004°12'715.0
2017-May-21 01:26N 49°15' W 004°21'3015.2
2017-May-20 23:29N 49°01' W 005°01'815.2
2017-May-20 22:57N 48°57' W 005°11'915.2
2017-May-20 22:23N 48°53' W 005°23'615.1
2017-May-20 21:58N 48°50' W 005°31'59613.4
2017-May-19 01:22N 39°25' W 009°57'512.4
2017-May-19 00:56N 39°20' W 009°57'612.4
2017-May-19 00:29N 39°14' W 009°57'612.2
2017-May-19 00:00N 39°08' W 009°57'612.3
2017-May-18 23:30N 39°02' W 009°57'612.2
2017-May-18 23:00N 38°56' W 009°57'612.3
2017-May-18 22:31N 38°50' W 009°57'612.4
2017-May-18 22:00N 38°44' W 009°57'612.2
2017-May-18 21:30N 38°38' W 009°56'612.3
2017-May-18 21:00N 38°32' W 009°55'612.4
2017-May-18 20:30N 38°25' W 009°53'612.4
2017-May-18 20:00N 38°19' W 009°52'612.3
2017-May-18 19:30N 38°13' W 009°50'612.4
2017-May-18 18:59N 38°07' W 009°48'712.2
2017-May-18 18:23N 38°00' W 009°45'23311.3
2017-May-17 21:43N 35°58' W 005°37'312.1
2017-May-17 21:31N 35°59' W 005°34'612.1
2017-May-17 21:00N 36°00' W 005°26'5 9.8
2017-May-17 20:31N 36°03' W 005°22'3 5.0
2017-May-17 20:00N 36°05' W 005°19'612.4
2017-May-17 19:30N 36°09' W 005°13'2 0.9
2017-May-17 17:33N 36°07' W 005°14'111.7
2017-May-17 17:28N 36°07' W 005°15'511.0
2017-May-17 17:00N 36°05' W 005°21'1 2.9
2017-May-17 16:30N 36°04' W 005°20'712.9
2017-May-17 15:59N 36°03' W 005°11'25414.2
2017-May-16 22:04N 36°46' E 000°00'114.8
2017-May-16 22:01N 36°46' E 000°02'1514.8
2017-May-16 20:58N 36°49' E 000°20'1714.7
2017-May-16 19:51N 36°52' E 000°41'514.7
2017-May-16 19:30N 36°53' E 000°47'714.7
2017-May-16 19:00N 36°54' E 000°56'714.5
2017-May-16 18:30N 36°55' E 001°05'714.4
2017-May-16 18:00N 36°57' E 001°14'814.2
2017-May-16 17:28N 36°58' E 001°23'1014.3
2017-May-16 16:44N 37°01' E 001°36'314.5
2017-May-16 16:31N 37°01' E 001°40'815.0
2017-May-16 16:00N 37°02' E 001°49'815.1
2017-May-16 15:31N 37°03' E 001°58'815.1
2017-May-16 15:00N 37°05' E 002°08'815.2
2017-May-16 14:30N 37°06' E 002°17'1515.0
2017-May-16 13:31N 37°10' E 002°35'714.8
2017-May-16 13:00N 37°12' E 002°44'714.6
2017-May-16 12:30N 37°12' E 002°54'714.4
2017-May-16 12:00N 37°13' E 003°03'814.4
2017-May-16 11:28N 37°15' E 003°12'714.4
2017-May-16 10:58N 37°16' E 003°21'714.4
2017-May-16 10:27N 37°18' E 003°30'714.5
2017-May-16 10:00N 37°19' E 003°38'714.5
2017-May-16 09:30N 37°20' E 003°47'714.5
2017-May-16 09:00N 37°21' E 003°56'714.7
2017-May-16 08:30N 37°23' E 004°05'714.6
2017-May-16 08:00N 37°24' E 004°14'1914.7
2017-May-16 06:43N 37°27' E 004°38'314.5
2017-May-16 06:30N 37°28' E 004°41'714.6
2017-May-16 06:00N 37°29' E 004°50'714.7
2017-May-16 05:30N 37°31' E 004°60'714.8
2017-May-16 05:00N 37°32' E 005°09'714.9
2017-May-16 04:30N 37°33' E 005°18'714.8
2017-May-16 04:01N 37°35' E 005°27'914.8
2017-May-16 03:23N 37°36' E 005°38'614.8
2017-May-16 02:59N 37°38' E 005°46'714.5
2017-May-16 02:30N 37°39' E 005°54'714.5
2017-May-16 02:00N 37°40' E 006°04'1914.6
2017-May-16 00:40N 37°39' E 006°28'614.8
2017-May-16 00:16N 37°39' E 006°36'414.7
2017-May-16 00:00N 37°40' E 006°41'714.7
2017-May-15 23:30N 37°39' E 006°50'6514.5
2017-May-15 19:00N 37°40' E 008°12'23413.8
2017-May-15 02:02N 36°46' E 012°58'014.3
2017-May-15 02:00N 36°46' E 012°58'714.3
2017-May-15 01:30N 36°43' E 013°06'714.8
2017-May-15 01:00N 36°40' E 013°15'715.0
2017-May-15 00:30N 36°37' E 013°23'714.9
2017-May-15 00:00N 36°34' E 013°32'714.8
2017-May-14 23:30N 36°32' E 013°41'714.8
2017-May-14 23:00N 36°29' E 013°49'714.5
2017-May-14 22:30N 36°26' E 013°57'714.1
2017-May-14 22:00N 36°25' E 014°06'714.1
2017-May-14 21:30N 36°24' E 014°15'713.9
2017-May-14 21:00N 36°24' E 014°23'714.0
2017-May-14 20:30N 36°24' E 014°32'714.0
2017-May-14 20:00N 36°23' E 014°41'714.2
2017-May-14 19:30N 36°23' E 014°50'714.3
2017-May-14 19:00N 36°22' E 014°58'714.3
2017-May-14 18:31N 36°22' E 015°07'714.5
2017-May-14 18:00N 36°22' E 015°16'714.6
2017-May-14 17:30N 36°21' E 015°25'714.7
2017-May-14 17:00N 36°21' E 015°35'814.7
2017-May-14 16:28N 36°20' E 015°44'3614.7
2017-May-14 14:02N 36°18' E 016°29'34214.0
2017-May-13 13:38N 36°22' E 023°33'213.4
2017-May-13 13:30N 36°23' E 023°35'913.5
2017-May-13 12:52N 36°29' E 023°42'613.4
2017-May-13 12:26N 36°34' E 023°47'613.5
2017-May-13 12:00N 36°38' E 023°52'913.7
2017-May-13 11:19N 36°46' E 023°58'413.5
2017-May-13 11:00N 36°50' E 024°01'713.4
2017-May-13 10:30N 36°56' E 024°04'913.5
2017-May-13 09:49N 37°05' E 024°07'514.0
2017-May-13 09:26N 37°10' E 024°08'814.1
2017-May-13 08:53N 37°18' E 024°09'  

Dump ship's entire track history